Time;durP1;ratioP1;P1;durP2;ratioP2;P2;SDS_P1;SDS_P2;PMS_P1;PMS_P2;Temp;Humidity;BMP_temperature;BMP_pressure;BME280_temperature;BME280_humidity;BME280_pressure;Samples;Min_cycle;Max_cycle;Signal;HPM_P1;HPM_P2
2022/05/06 00:02:14;;;;;;;21.23;10.85;;;9.30;98.60;;;;;;4904854;29;20048;-73
2022/05/06 00:04:43;;;;;;;26.73;11.85;;;9.30;98.60;;;;;;4907352;29;20504;-73
2022/05/06 00:07:11;;;;;;;21.40;12.10;;;9.30;98.60;;;;;;4907961;29;20573;-73
2022/05/06 00:09:37;;;;;;;23.42;11.23;;;9.30;98.70;;;;;;4902038;29;20036;-73
2022/05/06 00:12:03;;;;;;;23.92;12.00;;;9.30;98.70;;;;;;4907781;29;20028;-73
2022/05/06 00:14:29;;;;;;;26.23;13.13;;;9.20;98.60;;;;;;4905698;29;20048;-73
2022/05/06 00:16:55;;;;;;;31.40;12.98;;;9.20;98.60;;;;;;4908670;29;20623;-73
2022/05/06 00:19:21;;;;;;;24.10;12.98;;;9.20;98.70;;;;;;4904269;29;20087;-73
2022/05/06 00:21:46;;;;;;;30.10;13.00;;;9.20;98.80;;;;;;4903836;29;20043;-73
2022/05/06 00:24:12;;;;;;;31.98;15.57;;;9.10;98.80;;;;;;4905582;29;20040;-73
2022/05/06 00:26:38;;;;;;;29.00;13.98;;;9.10;98.90;;;;;;4902507;29;20032;-73
2022/05/06 00:29:03;;;;;;;36.47;15.65;;;9.10;99.20;;;;;;4896321;29;20464;-73
2022/05/06 00:31:29;;;;;;;31.20;15.55;;;9.20;99.40;;;;;;4897992;29;20069;-73
2022/05/06 00:33:55;;;;;;;28.70;13.60;;;9.10;99.50;;;;;;4898075;29;20040;-73
2022/05/06 00:36:21;;;;;;;28.88;13.85;;;9.10;99.50;;;;;;4907889;29;20080;-73
2022/05/06 00:38:46;;;;;;;23.08;11.93;;;9.00;99.40;;;;;;4905757;29;20123;-73
2022/05/06 00:41:12;;;;;;;24.92;12.25;;;9.00;99.40;;;;;;4906552;29;20101;-73
2022/05/06 00:43:41;;;;;;;24.00;13.52;;;8.90;99.40;;;;;;4922707;29;20040;-72
2022/05/06 00:46:12;;;;;;;28.95;14.32;;;8.90;99.30;;;;;;4907674;29;20111;-73
2022/05/06 00:48:44;;;;;;;28.15;14.27;;;8.80;99.30;;;;;;4907681;29;20062;-73
2022/05/06 00:51:09;;;;;;;20.42;11.68;;;8.70;99.30;;;;;;4906983;29;20096;-73
2022/05/06 00:53:36;;;;;;;27.42;12.00;;;8.70;99.30;;;;;;4904561;29;20440;-73
2022/05/06 00:56:04;;;;;;;20.13;12.15;;;8.60;99.20;;;;;;4906213;29;20123;-73
2022/05/06 00:58:32;;;;;;;26.10;13.20;;;8.50;99.10;;;;;;4903551;29;20524;-73
2022/05/06 01:00:57;;;;;;;23.77;11.55;;;8.50;99.20;;;;;;4889148;29;20044;-73
2022/05/06 01:03:23;;;;;;;23.65;11.93;;;8.50;99.20;;;;;;4894083;29;20433;-73
2022/05/06 01:05:50;;;;;;;21.13;10.68;;;8.40;99.20;;;;;;4906638;29;20346;-73
2022/05/06 01:08:16;;;;;;;21.10;11.93;;;8.40;99.10;;;;;;4907362;29;20276;-73
2022/05/06 01:10:43;;;;;;;22.42;11.88;;;8.30;99.10;;;;;;4903618;29;20115;-73
2022/05/06 01:13:08;;;;;;;30.63;13.18;;;8.20;99.10;;;;;;4907656;29;20111;-73
2022/05/06 01:15:34;;;;;;;24.42;11.90;;;8.20;99.10;;;;;;4904351;29;20571;-73
2022/05/06 01:18:00;;;;;;;23.33;13.00;;;8.20;99.20;;;;;;4893484;29;20396;-73
2022/05/06 01:20:26;;;;;;;28.23;13.63;;;8.10;99.20;;;;;;4888065;29;20029;-73
2022/05/06 01:22:58;;;;;;;24.45;13.25;;;8.20;99.30;;;;;;4894640;29;20040;-73
2022/05/06 01:25:24;;;;;;;29.33;13.32;;;8.20;99.30;;;;;;4902569;29;20402;-73
2022/05/06 01:27:55;;;;;;;23.38;12.75;;;8.10;99.40;;;;;;4905879;29;20642;-73
2022/05/06 01:30:42;;;;;;;26.15;13.07;;;8.20;99.50;;;;;;4905061;29;20567;-73
2022/05/06 01:33:14;;;;;;;26.50;13.73;;;8.10;99.40;;;;;;4908643;29;20403;-73
2022/05/06 01:35:45;;;;;;;23.30;12.23;;;8.10;99.40;;;;;;4906712;29;20363;-73
2022/05/06 01:38:18;;;;;;;21.48;12.45;;;8.10;99.50;;;;;;4901634;29;20275;-73
2022/05/06 01:40:49;;;;;;;23.70;12.57;;;8.10;99.50;;;;;;4905383;29;20036;-73
2022/05/06 01:43:18;;;;;;;27.23;12.43;;;8.10;99.50;;;;;;4906634;29;20044;-73
2022/05/06 01:45:45;;;;;;;23.63;13.05;;;8.20;99.50;;;;;;4906435;29;20048;-73
2022/05/06 01:48:12;;;;;;;26.02;12.93;;;8.10;99.50;;;;;;4927799;29;20050;-73
2022/05/06 01:50:39;;;;;;;24.77;12.60;;;8.10;99.50;;;;;;4903098;29;20032;-73
2022/05/06 01:53:08;;;;;;;27.65;14.02;;;8.10;99.60;;;;;;4889154;29;20496;-73
2022/05/06 01:55:33;;;;;;;26.20;13.10;;;8.10;99.90;;;;;;4906817;29;20292;-73
2022/05/06 01:57:59;;;;;;;23.90;13.60;;;8.00;99.60;;;;;;4905942;29;20034;-73
2022/05/06 02:00:25;;;;;;;22.40;12.35;;;8.00;99.60;;;;;;4905577;29;20110;-73
2022/05/06 02:02:51;;;;;;;23.80;13.30;;;8.00;99.60;;;;;;4905195;29;20056;-73
2022/05/06 02:05:17;;;;;;;26.02;13.85;;;8.00;99.60;;;;;;4903608;29;20102;-73
2022/05/06 02:07:48;;;;;;;28.20;14.95;;;7.90;99.60;;;;;;4903683;29;20080;-73
2022/05/06 02:10:18;;;;;;;31.05;15.25;;;7.90;99.50;;;;;;4898930;29;20032;-73
2022/05/06 02:12:47;;;;;;;28.58;14.45;;;7.90;99.60;;;;;;4903091;29;20040;-73
2022/05/06 02:15:14;;;;;;;26.92;13.85;;;7.90;99.60;;;;;;4904930;29;20685;-73
2022/05/06 02:17:41;;;;;;;25.63;14.27;;;7.90;99.60;;;;;;4906517;29;20032;-73
2022/05/06 02:20:09;;;;;;;29.83;15.30;;;7.80;99.60;;;;;;4905198;29;20543;-73
2022/05/06 02:22:35;;;;;;;27.05;13.80;;;7.90;99.70;;;;;;4904297;29;20040;-73
2022/05/06 02:25:02;;;;;;;33.35;14.35;;;7.80;99.60;;;;;;4904019;29;20031;-73
2022/05/06 02:27:28;;;;;;;21.92;12.88;;;7.80;99.70;;;;;;4904104;29;20157;-73
2022/05/06 02:35:22;;;;;;;20.88;11.88;;;7.70;99.50;;;;;;4903104;29;20054;-73
2022/05/06 02:37:47;;;;;;;19.13;10.85;;;7.70;99.50;;;;;;4904183;29;20488;-74
2022/05/06 02:40:13;;;;;;;16.42;10.32;;;7.60;99.50;;;;;;4896553;29;20588;-74
2022/05/06 02:42:39;;;;;;;17.02;10.02;;;7.50;99.30;;;;;;4906671;29;20036;-73
2022/05/06 02:45:05;;;;;;;18.98;10.63;;;7.50;99.20;;;;;;4905812;29;20039;-73
2022/05/06 02:47:31;;;;;;;22.88;11.98;;;7.40;99.20;;;;;;4906684;29;20606;-73
2022/05/06 02:49:56;;;;;;;21.33;11.73;;;7.40;99.20;;;;;;4903125;29;20028;-73
2022/05/06 02:52:23;;;;;;;22.52;11.75;;;7.30;99.20;;;;;;4900182;29;20829;-73
2022/05/06 02:54:49;;;;;;;20.02;11.55;;;7.30;99.30;;;;;;4904377;29;20075;-73
2022/05/06 02:57:14;;;;;;;19.90;11.10;;;7.30;99.30;;;;;;4905066;29;20036;-73
2022/05/06 02:59:40;;;;;;;22.45;12.00;;;7.20;99.20;;;;;;4900319;29;20040;-73
2022/05/06 03:02:06;;;;;;;19.25;10.15;;;7.20;99.30;;;;;;4903340;29;20060;-73
2022/05/06 03:04:33;;;;;;;24.08;11.15;;;7.10;99.20;;;;;;4905984;29;20075;-73
2022/05/06 03:06:59;;;;;;;19.92;11.25;;;7.10;99.20;;;;;;4903745;29;20472;-73
2022/05/06 03:09:25;;;;;;;21.70;11.35;;;7.10;99.20;;;;;;4916400;29;20036;-73
2022/05/06 03:11:52;;;;;;;17.30;11.52;;;7.10;99.10;;;;;;4900826;29;20032;-73
2022/05/06 03:14:17;;;;;;;15.23;10.23;;;7.10;99.10;;;;;;4901445;29;20088;-73
2022/05/06 03:16:43;;;;;;;17.23;9.50;;;7.10;99.10;;;;;;4901152;29;20374;-73
2022/05/06 03:19:09;;;;;;;18.23;10.07;;;7.10;99.10;;;;;;4905694;29;20289;-73
2022/05/06 03:21:35;;;;;;;20.73;10.00;;;7.00;99.10;;;;;;4905048;29;20036;-73
2022/05/06 03:24:01;;;;;;;21.30;11.75;;;7.10;99.20;;;;;;4901927;29;20107;-73
2022/05/06 03:26:26;;;;;;;14.52;9.13;;;7.10;99.20;;;;;;4904965;29;20043;-74
2022/05/06 03:28:57;;;;;;;14.60;9.45;;;7.20;99.30;;;;;;4900473;29;20119;-73
2022/05/06 03:31:25;;;;;;;20.70;11.10;;;7.20;99.20;;;;;;4896889;29;20115;-73
2022/05/06 03:33:52;;;;;;;19.10;10.77;;;7.20;99.20;;;;;;4885894;29;20176;-73
2022/05/06 03:36:18;;;;;;;19.77;11.75;;;7.20;99.20;;;;;;4885727;29;20045;-73
2022/05/06 03:38:44;;;;;;;21.25;11.38;;;7.20;99.30;;;;;;4894663;29;20060;-73
2022/05/06 03:41:09;;;;;;;21.63;10.77;;;7.20;99.30;;;;;;4902673;29;20501;-73
2022/05/06 03:43:35;;;;;;;25.80;11.82;;;7.30;99.40;;;;;;4902284;29;20487;-73
2022/05/06 03:46:01;;;;;;;27.25;12.43;;;7.30;99.40;;;;;;4904632;29;20412;-73
2022/05/06 03:48:26;;;;;;;33.60;14.48;;;7.30;99.50;;;;;;4903655;29;20036;-73
2022/05/06 03:53:37;;;;;;;23.98;11.13;;;7.30;99.60;;;;;;4905766;29;20409;-73
2022/05/06 03:56:04;;;;;;;26.45;13.13;;;7.30;99.50;;;;;;4904895;29;20036;-73
2022/05/06 03:58:30;;;;;;;30.02;13.63;;;7.20;99.40;;;;;;4900266;29;20048;-73
2022/05/06 04:00:55;;;;;;;34.13;15.25;;;7.10;99.40;;;;;;4903554;29;20099;-73
2022/05/06 04:03:21;;;;;;;32.97;13.63;;;7.10;99.90;;;;;;4905623;29;20036;-73
2022/05/06 04:05:47;;;;;;;26.88;14.00;;;7.10;99.90;;;;;;4902808;29;20310;-74
2022/05/06 04:08:12;;;;;;;33.00;14.52;;;7.00;99.90;;;;;;4905436;29;20036;-74
2022/05/06 04:10:38;;;;;;;28.88;12.93;;;7.00;99.90;;;;;;4903090;29;20111;-74
2022/05/06 04:13:04;;;;;;;30.30;13.10;;;7.00;99.90;;;;;;4902018;29;20051;-74
2022/05/06 04:15:32;;;;;;;31.30;12.32;;;6.90;99.90;;;;;;4902977;29;20501;-74
2022/05/06 04:17:58;;;;;;;25.70;12.82;;;6.90;99.90;;;;;;4904140;29;20079;-73
2022/05/06 04:25:53;;;;;;;29.45;12.93;;;6.80;99.90;;;;;;4900557;29;20118;-74
2022/05/06 04:28:19;;;;;;;37.72;12.50;;;6.80;99.90;;;;;;4902173;29;20061;-74
2022/05/06 04:30:44;;;;;;;39.67;14.98;;;6.80;99.90;;;;;;4904563;29;20028;-74
2022/05/06 04:33:10;;;;;;;31.75;13.95;;;6.80;99.90;;;;;;4904904;29;20394;-73
2022/05/06 04:35:36;;;;;;;25.85;13.20;;;6.80;99.90;;;;;;4905446;29;20087;-74
2022/05/06 04:38:01;;;;;;;23.98;12.43;;;6.80;99.90;;;;;;4903614;29;20039;-74
2022/05/06 04:40:27;;;;;;;26.02;12.95;;;6.80;99.90;;;;;;4899788;29;20044;-74
2022/05/06 04:42:53;;;;;;;25.10;12.18;;;6.80;99.90;;;;;;4904667;29;20035;-73
2022/05/06 04:45:18;;;;;;;23.85;11.65;;;6.90;99.90;;;;;;4905177;29;20036;-74
2022/05/06 04:47:44;;;;;;;26.38;11.82;;;6.90;99.80;;;;;;4904722;29;20122;-74
2022/05/06 04:50:09;;;;;;;29.83;13.00;;;6.90;99.70;;;;;;4904742;29;20111;-74
2022/05/06 04:52:35;;;;;;;30.08;12.30;;;6.90;99.70;;;;;;4908249;29;20392;-73
2022/05/06 04:55:01;;;;;;;27.83;12.32;;;7.00;99.60;;;;;;4919543;29;21763;-74
2022/05/06 04:57:26;;;;;;;35.58;12.65;;;7.10;99.60;;;;;;4898937;29;20035;-74
2022/05/06 04:59:52;;;;;;;28.70;13.77;;;7.10;99.50;;;;;;4907594;29;20492;-74
2022/05/06 05:02:18;;;;;;;56.53;12.65;;;7.20;99.40;;;;;;4906752;29;20051;-74
2022/05/06 05:04:44;;;;;;;34.20;14.00;;;7.10;99.30;;;;;;4902424;29;20072;-74
2022/05/06 05:07:10;;;;;;;36.15;12.70;;;7.10;99.40;;;;;;4894273;29;20032;-74
2022/05/06 05:09:36;;;;;;;30.13;12.27;;;7.20;99.40;;;;;;4907635;29;20074;-74
2022/05/06 05:12:03;;;;;;;30.38;12.93;;;7.20;99.40;;;;;;4898427;29;20452;-74
2022/05/06 05:14:29;;;;;;;37.47;12.55;;;7.30;99.50;;;;;;4890140;29;20043;-74
2022/05/06 05:16:54;;;;;;;33.15;12.35;;;7.40;99.40;;;;;;4906006;29;20475;-73
2022/05/06 05:19:20;;;;;;;34.53;13.45;;;7.40;99.20;;;;;;4902549;29;20032;-74
2022/05/06 05:21:47;;;;;;;25.98;12.57;;;7.50;99.20;;;;;;4904691;29;20036;-74
2022/05/06 05:24:13;;;;;;;24.38;11.95;;;7.60;99.20;;;;;;4907534;29;20043;-74
2022/05/06 05:26:39;;;;;;;23.83;12.25;;;7.50;98.90;;;;;;4907077;29;20043;-74
2022/05/06 05:29:05;;;;;;;21.40;12.77;;;7.60;98.70;;;;;;4903722;29;20040;-74
2022/05/06 05:31:31;;;;;;;20.23;11.20;;;7.60;98.60;;;;;;4895915;29;20100;-74
2022/05/06 05:33:56;;;;;;;20.80;11.60;;;7.70;98.30;;;;;;4903319;29;20047;-74
2022/05/06 05:36:22;;;;;;;18.52;10.45;;;7.70;98.00;;;;;;4905886;29;20036;-74
2022/05/06 05:38:48;;;;;;;19.35;11.05;;;7.60;97.80;;;;;;4904415;29;20131;-74
2022/05/06 05:41:13;;;;;;;21.38;11.40;;;7.70;97.80;;;;;;4905178;29;20036;-74
2022/05/06 05:49:08;;;;;;;19.08;11.15;;;7.90;97.80;;;;;;4904020;29;20055;-73
2022/05/06 05:51:34;;;;;;;20.67;11.25;;;8.00;97.90;;;;;;4899673;29;20036;-73
2022/05/06 05:53:59;;;;;;;19.45;11.02;;;8.10;97.80;;;;;;4222958;28;9999940;-73
2022/05/06 05:56:25;;;;;;;19.80;10.68;;;8.10;97.70;;;;;;4903883;29;20032;-74
2022/05/06 05:58:51;;;;;;;18.40;11.02;;;8.20;97.60;;;;;;4899208;29;20110;-72
2022/05/06 06:01:17;;;;;;;18.65;11.50;;;8.30;97.40;;;;;;4901126;29;20075;-73
2022/05/06 06:03:43;;;;;;;17.70;11.82;;;8.40;97.50;;;;;;4897371;29;20665;-73
2022/05/06 06:06:09;;;;;;;16.88;10.55;;;8.50;97.30;;;;;;4898033;29;20145;-73
2022/05/06 06:08:35;;;;;;;19.52;11.95;;;8.60;97.20;;;;;;4899322;29;20051;-74
2022/05/06 06:11:04;;;;;;;15.45;9.73;;;8.60;96.90;;;;;;4901927;29;20376;-73
2022/05/06 06:13:30;;;;;;;14.35;9.90;;;8.80;96.90;;;;;;4893767;29;20030;-73
2022/05/06 06:15:57;;;;;;;19.52;13.20;;;8.90;96.70;;;;;;4897579;29;20427;-74
2022/05/06 06:18:26;;;;;;;24.27;12.95;;;8.90;96.60;;;;;;4892652;29;20455;-73
2022/05/06 06:20:53;;;;;;;14.55;10.18;;;9.10;96.40;;;;;;4897005;29;20047;-73
2022/05/06 06:23:20;;;;;;;19.67;11.48;;;9.20;96.20;;;;;;4900965;29;20103;-74
2022/05/06 06:25:45;;;;;;;15.65;10.93;;;9.30;96.00;;;;;;4903360;29;20099;-75
2022/05/06 06:28:11;;;;;;;15.80;11.00;;;9.50;96.10;;;;;;4898995;29;20483;-73
2022/05/06 06:30:37;;;;;;;12.85;9.60;;;9.60;95.90;;;;;;4908752;29;20036;-72
2022/05/06 06:33:03;;;;;;;13.60;9.82;;;9.80;95.90;;;;;;4905006;29;20046;-73
2022/05/06 06:35:28;;;;;;;18.02;11.32;;;9.90;95.80;;;;;;4899991;29;20092;-73
2022/05/06 06:37:54;;;;;;;17.83;12.52;;;10.00;95.90;;;;;;4900665;29;20032;-73
2022/05/06 06:40:20;;;;;;;16.30;9.88;;;10.10;96.00;;;;;;4899897;29;20150;-74
2022/05/06 06:42:46;;;;;;;16.05;9.73;;;10.20;95.80;;;;;;4898232;29;20047;-73
2022/05/06 06:45:12;;;;;;;16.42;10.32;;;10.40;95.80;;;;;;4898738;29;20103;-73
2022/05/06 06:47:38;;;;;;;16.98;10.45;;;10.60;95.80;;;;;;4902731;29;20432;-73
2022/05/06 06:50:04;;;;;;;15.40;9.77;;;10.70;95.90;;;;;;4906733;29;20733;-73
2022/05/06 06:52:30;;;;;;;15.48;9.52;;;10.80;95.80;;;;;;4905001;29;20484;-73
2022/05/06 06:54:57;;;;;;;16.80;10.68;;;11.00;95.90;;;;;;4904190;29;20039;-74
2022/05/06 06:57:22;;;;;;;15.13;9.63;;;11.20;95.60;;;;;;4890231;29;20696;-73
2022/05/06 06:59:48;;;;;;;16.25;9.27;;;11.40;95.20;;;;;;4896840;29;20439;-73
2022/05/06 07:02:14;;;;;;;14.73;9.63;;;11.60;95.20;;;;;;4889984;29;20650;-74
2022/05/06 07:04:39;;;;;;;17.15;10.02;;;11.70;95.00;;;;;;4888588;29;20071;-74
2022/05/06 07:12:51;;;;;;;12.15;9.02;;;12.30;94.70;;;;;;4884944;29;20138;-73
2022/05/06 07:15:17;;;;;;;13.82;9.25;;;12.50;94.10;;;;;;4891749;29;20072;-73
2022/05/06 07:17:42;;;;;;;15.70;9.52;;;12.70;93.70;;;;;;4913831;29;20028;-73
2022/05/06 07:20:08;;;;;;;15.43;9.52;;;12.80;93.80;;;;;;4891000;29;20216;-73
2022/05/06 07:22:34;;;;;;;16.50;8.60;;;13.00;93.50;;;;;;4900724;29;20472;-73
2022/05/06 07:24:59;;;;;;;16.73;10.27;;;13.10;93.30;;;;;;4902578;29;20040;-72
2022/05/06 07:27:25;;;;;;;15.30;9.48;;;13.20;93.10;;;;;;4901509;29;20570;-72
2022/05/06 07:29:51;;;;;;;17.02;9.25;;;13.30;93.20;;;;;;4898917;29;20028;-72
2022/05/06 07:32:18;;;;;;;10.48;7.95;;;13.30;92.80;;;;;;4895298;29;20612;-72
2022/05/06 07:34:43;;;;;;;14.95;8.77;;;13.50;93.10;;;;;;4890462;29;20059;-73
2022/05/06 07:37:09;;;;;;;15.82;9.13;;;13.60;92.70;;;;;;4892224;29;20036;-71
2022/05/06 07:39:35;;;;;;;13.25;8.48;;;13.80;92.40;;;;;;4891852;29;20464;-72
2022/05/06 07:42:00;;;;;;;11.77;8.15;;;14.10;92.00;;;;;;4877790;29;20039;-72
2022/05/06 07:44:26;;;;;;;14.27;7.88;;;14.40;91.40;;;;;;4885795;29;20095;-72
2022/05/06 07:46:52;;;;;;;13.30;7.55;;;15.40;89.50;;;;;;4895006;29;20557;-72
2022/05/06 07:49:18;;;;;;;11.77;7.22;;;18.50;80.40;;;;;;4898062;29;20597;-74
2022/05/06 07:51:43;;;;;;;14.88;6.93;;;22.50;66.30;;;;;;4894320;29;20028;-72
2022/05/06 07:54:09;;;;;;;11.20;7.47;;;25.30;56.10;;;;;;4899558;29;20032;-72
2022/05/06 07:56:35;;;;;;;9.27;6.15;;;26.50;49.70;;;;;;4894603;29;20040;-73
2022/05/06 07:59:00;;;;;;;12.43;6.20;;;28.70;44.10;;;;;;4902294;29;20435;-72
2022/05/06 08:06:55;;;;;;;7.85;6.40;;;29.60;39.50;;;;;;4896131;29;20100;-73
2022/05/06 08:09:21;;;;;;;11.75;6.28;;;30.60;38.00;;;;;;4903995;29;20036;-73
2022/05/06 08:11:48;;;;;;;9.32;6.38;;;31.50;37.20;;;;;;4903301;29;20051;-73
2022/05/06 08:14:15;;;;;;;14.23;6.80;;;31.30;38.70;;;;;;4897518;29;20043;-73
2022/05/06 08:16:41;;;;;;;10.18;6.63;;;31.90;36.30;;;;;;4899966;29;20071;-74
2022/05/06 08:19:07;;;;;;;10.18;6.22;;;31.00;36.30;;;;;;4899303;29;20467;-73
2022/05/06 08:21:33;;;;;;;9.32;6.40;;;32.10;35.50;;;;;;4912763;29;20044;-73
2022/05/06 08:23:58;;;;;;;9.23;6.63;;;32.50;36.00;;;;;;4899193;29;20131;-73
2022/05/06 08:26:24;;;;;;;11.48;7.32;;;32.60;35.00;;;;;;4904842;29;20032;-73
2022/05/06 08:28:49;;;;;;;9.48;6.97;;;32.40;33.90;;;;;;4900895;29;20063;-73
2022/05/06 08:31:15;;;;;;;10.13;7.82;;;32.10;35.90;;;;;;4893129;29;20051;-73
2022/05/06 08:33:41;;;;;;;12.27;7.47;;;32.90;34.20;;;;;;4223557;29;10000122;-75
2022/05/06 08:36:06;;;;;;;14.73;8.82;;;33.60;34.90;;;;;;4882253;29;20876;-74
2022/05/06 08:38:32;;;;;;;16.98;9.13;;;33.30;35.50;;;;;;4892631;29;20046;-75
2022/05/06 08:41:00;;;;;;;16.95;10.13;;;32.80;34.90;;;;;;4894553;29;20163;-76
2022/05/06 08:43:26;;;;;;;16.50;9.80;;;33.20;33.20;;;;;;4902305;29;20032;-76
2022/05/06 08:51:32;;;;;;;13.38;8.80;;;32.70;33.10;;;;;;4905527;29;20856;-76
2022/05/06 08:53:59;;;;;;;10.80;8.15;;;32.40;35.60;;;;;;4906063;29;20048;-77
2022/05/06 08:56:25;;;;;;;14.02;8.63;;;31.60;35.20;;;;;;4908054;29;20028;-76
2022/05/06 08:58:50;;;;;;;17.20;8.35;;;32.50;36.60;;;;;;4908038;29;20044;-79
2022/05/06 09:01:21;;;;;;;15.10;8.00;;;32.00;34.60;;;;;;4906880;29;20103;-76
2022/05/06 09:03:48;;;;;;;12.02;8.20;;;32.40;37.80;;;;;;4902847;29;20059;-76
2022/05/06 09:06:17;;;;;;;11.73;7.05;;;32.80;34.30;;;;;;4907853;29;20535;-74
2022/05/06 09:08:43;;;;;;;11.88;7.82;;;32.40;34.60;;;;;;4907101;29;20059;-75
2022/05/06 09:11:10;;;;;;;12.77;7.20;;;33.30;37.30;;;;;;4905446;29;20024;-75
2022/05/06 09:13:51;;;;;;;13.40;7.55;;;32.00;35.80;;;;;;4889778;29;20556;-75
2022/05/06 09:19:19;;;;;;;10.40;6.25;;;31.70;37.00;;;;;;4905453;29;20091;-75
2022/05/06 09:22:04;;;;;;;11.48;6.55;;;32.70;35.70;;;;;;4902513;29;20031;-75
2022/05/06 09:24:31;;;;;;;8.35;6.57;;;32.60;35.10;;;;;;4903020;29;20044;-75
2022/05/06 09:27:01;;;;;;;15.10;6.28;;;32.40;35.70;;;;;;4908125;29;20039;-75
2022/05/06 09:29:37;;;;;;;10.50;6.47;;;30.70;38.00;;;;;;4901440;29;20197;-75
2022/05/06 09:32:16;;;;;;;8.95;6.22;;;31.40;36.70;;;;;;4906180;29;20063;-77
2022/05/06 09:34:42;;;;;;;7.57;5.30;;;32.10;35.90;;;;;;4905587;29;20063;-76
2022/05/06 09:37:08;;;;;;;10.27;5.97;;;32.60;36.20;;;;;;4904926;29;20048;-75
2022/05/06 09:39:41;;;;;;;10.20;6.13;;;32.70;36.50;;;;;;4906960;29;20766;-73
2022/05/06 09:42:07;;;;;;;10.00;6.28;;;33.20;35.80;;;;;;4896470;29;20099;-75
2022/05/06 09:44:33;;;;;;;9.00;5.85;;;33.20;33.30;;;;;;4904857;29;20151;-76
2022/05/06 09:47:11;;;;;;;11.43;6.03;;;33.10;36.30;;;;;;4895247;29;20046;-75
2022/05/06 09:49:41;;;;;;;11.25;6.13;;;33.00;34.50;;;;;;4895315;29;20056;-75
2022/05/06 09:52:11;;;;;;;9.50;6.20;;;32.70;32.20;;;;;;4895191;29;20067;-77
2022/05/06 09:54:38;;;;;;;11.50;6.63;;;32.50;36.00;;;;;;4897381;29;20114;-77
2022/05/06 09:57:06;;;;;;;12.70;6.88;;;32.20;32.70;;;;;;4896382;29;20115;-74
2022/05/06 09:59:32;;;;;;;7.57;5.28;;;32.20;33.60;;;;;;4898222;29;20042;-74
2022/05/06 10:01:58;;;;;;;5.45;3.47;;;32.60;36.80;;;;;;4894538;29;20412;-74
2022/05/06 10:04:24;;;;;;;4.85;2.80;;;32.80;33.10;;;;;;4896036;29;20036;-75
2022/05/06 10:06:50;;;;;;;5.85;2.10;;;33.30;32.60;;;;;;4886038;29;20075;-75
2022/05/06 10:09:21;;;;;;;6.38;2.17;;;33.20;28.80;;;;;;4898677;29;20091;-74
2022/05/06 10:11:48;;;;;;;5.65;2.40;;;32.70;29.10;;;;;;4894445;29;20036;-77
2022/05/06 10:14:15;;;;;;;6.47;3.60;;;31.70;27.20;;;;;;4900675;29;20522;-75
2022/05/06 10:16:41;;;;;;;4.35;2.85;;;31.50;29.60;;;;;;4894740;29;20036;-75
2022/05/06 10:19:28;;;;;;;10.48;3.80;;;31.70;33.10;;;;;;4901795;29;20088;-76
2022/05/06 10:21:55;;;;;;;8.82;4.10;;;31.80;32.40;;;;;;4897043;29;20031;-77
2022/05/06 10:24:21;;;;;;;30.30;8.88;;;31.70;34.40;;;;;;4900391;29;20044;-81
2022/05/06 10:26:48;;;;;;;10.02;4.20;;;31.40;32.40;;;;;;4895205;29;20039;-75
2022/05/06 10:32:26;;;;;;;23.98;7.38;;;31.90;31.80;;;;;;4896781;29;20051;-74
2022/05/06 10:34:55;;;;;;;6.30;2.60;;;31.50;36.40;;;;;;4910142;29;20043;-73
2022/05/06 10:37:22;;;;;;;4.85;2.45;;;31.60;36.90;;;;;;4897791;29;20666;-73
2022/05/06 10:39:48;;;;;;;3.88;2.30;;;31.90;31.30;;;;;;4897940;29;20156;-72
2022/05/06 10:42:15;;;;;;;4.97;2.58;;;32.00;29.00;;;;;;4902010;29;20032;-75
2022/05/06 10:44:42;;;;;;;3.95;2.30;;;31.50;31.40;;;;;;4901825;29;20044;-75
2022/05/06 10:47:13;;;;;;;2.75;1.98;;;31.40;32.20;;;;;;4903244;29;20034;-73
2022/05/06 10:49:39;;;;;;;5.78;2.33;;;31.70;33.10;;;;;;4890695;29;20036;-74
2022/05/06 10:52:13;;;;;;;17.67;4.53;;;31.60;31.40;;;;;;4899553;29;20092;-76
2022/05/06 10:54:40;;;;;;;3.40;1.92;;;32.00;29.30;;;;;;4891819;29;20436;-73
2022/05/06 10:57:07;;;;;;;2.65;1.70;;;31.50;31.10;;;;;;4887696;29;20067;-74
2022/05/06 10:59:54;;;;;;;3.35;2.00;;;30.90;30.30;;;;;;4897047;29;20419;-74
2022/05/06 11:02:28;;;;;;;4.43;2.03;;;30.60;28.80;;;;;;4897928;29;20058;-73
2022/05/06 11:04:59;;;;;;;2.65;1.45;;;30.00;33.60;;;;;;4904163;29;20043;-74
2022/05/06 11:07:25;;;;;;;4.50;1.60;;;30.70;33.70;;;;;;4905370;29;20020;-74
2022/05/06 11:09:51;;;;;;;4.05;1.80;;;30.20;34.60;;;;;;4905349;29;20333;-74
2022/05/06 11:12:40;;;;;;;3.00;1.45;;;30.10;30.40;;;;;;4900507;29;20028;-73
2022/05/06 11:15:08;;;;;;;5.32;1.67;;;29.60;32.70;;;;;;4905186;29;20499;-73
2022/05/06 11:17:34;;;;;;;2.28;1.48;;;30.20;28.80;;;;;;4904864;29;20067;-73
2022/05/06 11:20:01;;;;;;;2.72;1.27;;;29.70;32.00;;;;;;4903525;29;20044;-74
2022/05/06 11:22:27;;;;;;;4.25;1.52;;;29.60;30.50;;;;;;4905721;29;20032;-73
2022/05/06 11:24:56;;;;;;;3.67;1.30;;;29.60;31.80;;;;;;4905071;29;20405;-73
2022/05/06 11:27:22;;;;;;;3.90;1.60;;;29.20;33.20;;;;;;4902339;29;20033;-73
2022/05/06 11:29:55;;;;;;;3.03;1.20;;;28.30;32.70;;;;;;4900457;29;20031;-73
2022/05/06 11:32:22;;;;;;;3.83;1.40;;;28.00;37.10;;;;;;4904522;29;20040;-73
2022/05/06 11:34:55;;;;;;;4.28;2.05;;;28.00;39.90;;;;;;4905237;29;20055;-74
2022/05/06 11:37:22;;;;;;;3.33;1.35;;;27.50;32.50;;;;;;4901523;29;20032;-73
2022/05/06 11:39:49;;;;;;;1.77;1.20;;;26.80;36.80;;;;;;4905195;29;20029;-73
2022/05/06 11:42:22;;;;;;;2.90;1.40;;;26.40;39.30;;;;;;4897164;29;20036;-73
2022/05/06 11:47:44;;;;;;;1.38;1.00;;;26.60;39.20;;;;;;4901010;29;21035;-74
2022/05/06 11:50:10;;;;;;;2.35;0.82;;;26.60;40.50;;;;;;4896321;29;20035;-74
2022/05/06 11:52:40;;;;;;;1.75;0.73;;;26.70;36.70;;;;;;4901222;29;20525;-74
2022/05/06 11:55:07;;;;;;;1.33;0.80;;;26.70;34.80;;;;;;4903816;29;20039;-73
2022/05/06 11:57:37;;;;;;;2.78;0.77;;;26.80;38.70;;;;;;4898872;29;20112;-75
2022/05/06 12:00:06;;;;;;;3.38;0.80;;;26.50;33.10;;;;;;4903528;29;20032;-73
2022/05/06 12:02:32;;;;;;;1.90;1.10;;;26.10;34.40;;;;;;4901961;29;20139;-74
2022/05/06 12:04:58;;;;;;;1.67;1.00;;;25.80;37.20;;;;;;4902088;29;20419;-74
2022/05/06 12:07:46;;;;;;;3.17;1.17;;;26.10;38.00;;;;;;4915642;29;20024;-74
2022/05/06 12:10:30;;;;;;;3.60;1.25;;;26.00;37.40;;;;;;4904288;29;20035;-74
2022/05/06 12:13:00;;;;;;;2.47;1.30;;;25.90;36.30;;;;;;4908836;29;20572;-73
2022/05/06 12:15:29;;;;;;;1.52;1.02;;;25.80;37.50;;;;;;4905281;29;20617;-74
2022/05/06 12:18:18;;;;;;;3.72;1.55;;;26.10;33.70;;;;;;4899323;29;20028;-74
2022/05/06 12:20:46;;;;;;;2.67;1.48;;;25.50;37.20;;;;;;4903278;29;20036;-74
2022/05/06 12:23:13;;;;;;;5.25;2.15;;;25.70;40.70;;;;;;4558367;28;9999725;-74
2022/05/06 12:25:39;;;;;;;2.90;2.05;;;25.40;35.30;;;;;;4896325;29;20041;-73
2022/05/06 12:28:21;;;;;;;2.58;2.33;;;24.90;38.30;;;;;;4903952;29;20303;-74
2022/05/06 12:30:47;;;;;;;;;;;24.80;43.60;;;;;;4903421;29;20427;-72
2022/05/06 12:33:17;;;;;;;4.15;2.55;;;25.10;40.10;;;;;;4895361;29;19976;-74
2022/05/06 12:36:00;;;;;;;4.72;2.90;;;24.90;41.30;;;;;;4901005;29;20116;-74
2022/05/06 12:38:47;;;;;;;4.40;3.85;;;25.00;49.40;;;;;;4899091;29;20116;-75
2022/05/06 12:41:35;;;;;;;5.50;3.75;;;25.10;38.80;;;;;;4885660;29;20321;-72
2022/05/06 12:44:15;;;;;;;8.93;3.75;;;24.60;41.10;;;;;;4904943;29;20092;-74
2022/05/06 12:46:41;;;;;;;6.18;3.50;;;24.90;46.10;;;;;;4917224;29;20487;-73
2022/05/06 12:51:51;;;;;;;7.22;4.28;;;25.10;44.40;;;;;;4902256;29;20111;-74
2022/05/06 12:54:16;;;;;;;7.57;4.05;;;25.10;47.60;;;;;;4902038;29;20032;-76
2022/05/06 12:56:42;;;;;;;6.38;3.13;;;25.40;42.00;;;;;;4904135;29;20123;-75
2022/05/06 12:59:08;;;;;;;6.40;3.30;;;25.50;44.00;;;;;;4906973;29;20040;-74
2022/05/06 13:01:34;;;;;;;10.00;3.10;;;25.20;44.10;;;;;;4906386;29;20091;-74
2022/05/06 13:04:00;;;;;;;6.20;3.15;;;24.90;45.40;;;;;;4908068;29;20079;-73
2022/05/06 13:06:26;;;;;;;4.60;2.92;;;24.50;44.60;;;;;;4908095;29;20028;-73
2022/05/06 13:08:51;;;;;;;5.97;3.28;;;24.10;45.80;;;;;;4905127;29;20511;-73
2022/05/06 13:11:17;;;;;;;6.15;2.53;;;24.00;42.70;;;;;;4898632;29;20047;-74
2022/05/06 13:13:43;;;;;;;7.25;3.42;;;24.10;48.80;;;;;;4898818;29;20036;-74
2022/05/06 13:16:09;;;;;;;4.25;3.15;;;24.00;44.90;;;;;;4902381;29;20036;-73
2022/05/06 13:18:35;;;;;;;7.63;3.20;;;23.60;45.30;;;;;;4903935;29;20126;-73
2022/05/06 13:21:01;;;;;;;7.07;2.75;;;23.40;49.20;;;;;;4898584;29;20027;-71
2022/05/06 13:23:26;;;;;;;7.10;2.58;;;23.60;45.30;;;;;;4906389;29;20833;-72
2022/05/06 13:25:52;;;;;;;5.75;2.88;;;23.60;45.60;;;;;;4899307;29;20028;-73
2022/05/06 13:28:18;;;;;;;3.47;2.55;;;23.70;46.90;;;;;;4903046;29;20119;-72
2022/05/06 13:30:44;;;;;;;5.18;2.60;;;23.80;46.00;;;;;;4900178;29;20119;-69